sensor_id;sensor_type;location;lat;lon;timestamp;P1;durP1;ratioP1;P2;durP2;ratioP2
47545;SDS011;50104;52.002;4.688;2023-05-01T00:04:12;5.30;;;3.03;;
47545;SDS011;50104;52.002;4.688;2023-05-01T00:09:12;4.15;;;3.13;;
47545;SDS011;50104;52.002;4.688;2023-05-01T00:14:14;3.55;;;3.10;;
47545;SDS011;50104;52.002;4.688;2023-05-01T00:19:15;3.28;;;2.80;;
47545;SDS011;50104;52.002;4.688;2023-05-01T00:24:17;4.40;;;3.15;;
47545;SDS011;50104;52.002;4.688;2023-05-01T00:29:20;4.18;;;2.80;;
47545;SDS011;50104;52.002;4.688;2023-05-01T00:34:21;3.92;;;2.75;;
47545;SDS011;50104;52.002;4.688;2023-05-01T00:39:22;5.53;;;2.92;;
47545;SDS011;50104;52.002;4.688;2023-05-01T00:44:23;4.80;;;2.83;;
47545;SDS011;50104;52.002;4.688;2023-05-01T00:49:24;7.05;;;3.13;;
47545;SDS011;50104;52.002;4.688;2023-05-01T00:54:26;3.42;;;3.08;;
47545;SDS011;50104;52.002;4.688;2023-05-01T00:59:27;3.53;;;2.83;;
47545;SDS011;50104;52.002;4.688;2023-05-01T01:04:28;4.72;;;3.10;;
47545;SDS011;50104;52.002;4.688;2023-05-01T01:15:22;7.18;;;3.10;;
47545;SDS011;50104;52.002;4.688;2023-05-01T01:20:36;3.03;;;2.70;;
47545;SDS011;50104;52.002;4.688;2023-05-01T01:26:04;4.88;;;3.03;;
47545;SDS011;50104;52.002;4.688;2023-05-01T01:31:13;4.63;;;2.83;;
47545;SDS011;50104;52.002;4.688;2023-05-01T01:36:24;2.92;;;2.63;;
47545;SDS011;50104;52.002;4.688;2023-05-01T01:41:48;4.43;;;2.92;;
47545;SDS011;50104;52.002;4.688;2023-05-01T01:46:51;4.05;;;3.15;;
47545;SDS011;50104;52.002;4.688;2023-05-01T01:51:54;4.43;;;2.47;;
47545;SDS011;50104;52.002;4.688;2023-05-01T01:56:58;3.45;;;2.80;;
47545;SDS011;50104;52.002;4.688;2023-05-01T02:02:02;9.52;;;3.30;;
47545;SDS011;50104;52.002;4.688;2023-05-01T02:07:04;3.80;;;2.83;;
47545;SDS011;50104;52.002;4.688;2023-05-01T02:12:07;3.00;;;2.70;;
47545;SDS011;50104;52.002;4.688;2023-05-01T02:17:10;3.33;;;2.33;;
47545;SDS011;50104;52.002;4.688;2023-05-01T02:22:13;5.45;;;2.95;;
47545;SDS011;50104;52.002;4.688;2023-05-01T02:27:20;10.38;;;3.65;;
47545;SDS011;50104;52.002;4.688;2023-05-01T02:32:30;3.72;;;2.50;;
47545;SDS011;50104;52.002;4.688;2023-05-01T02:37:31;3.58;;;2.70;;
47545;SDS011;50104;52.002;4.688;2023-05-01T02:42:32;5.20;;;2.90;;
47545;SDS011;50104;52.002;4.688;2023-05-01T02:47:37;5.20;;;2.83;;
47545;SDS011;50104;52.002;4.688;2023-05-01T02:52:41;3.67;;;2.80;;
47545;SDS011;50104;52.002;4.688;2023-05-01T02:57:43;3.70;;;3.20;;
47545;SDS011;50104;52.002;4.688;2023-05-01T03:02:45;3.80;;;2.83;;
47545;SDS011;50104;52.002;4.688;2023-05-01T03:07:46;3.72;;;2.90;;
47545;SDS011;50104;52.002;4.688;2023-05-01T03:12:48;6.65;;;3.42;;
47545;SDS011;50104;52.002;4.688;2023-05-01T03:17:49;6.18;;;2.83;;
47545;SDS011;50104;52.002;4.688;2023-05-01T03:22:50;6.43;;;3.20;;
47545;SDS011;50104;52.002;4.688;2023-05-01T03:27:51;3.47;;;3.03;;
47545;SDS011;50104;52.002;4.688;2023-05-01T03:32:52;3.72;;;2.72;;
47545;SDS011;50104;52.002;4.688;2023-05-01T03:37:55;6.15;;;3.35;;
47545;SDS011;50104;52.002;4.688;2023-05-01T03:42:56;4.22;;;2.92;;
47545;SDS011;50104;52.002;4.688;2023-05-01T03:47:57;3.92;;;3.35;;
47545;SDS011;50104;52.002;4.688;2023-05-01T03:52:57;5.35;;;2.85;;
47545;SDS011;50104;52.002;4.688;2023-05-01T03:57:58;4.22;;;3.15;;
47545;SDS011;50104;52.002;4.688;2023-05-01T04:02:59;4.90;;;4.13;;
47545;SDS011;50104;52.002;4.688;2023-05-01T04:08:00;3.78;;;2.75;;
47545;SDS011;50104;52.002;4.688;2023-05-01T04:13:02;4.95;;;3.08;;
47545;SDS011;50104;52.002;4.688;2023-05-01T04:18:04;6.75;;;3.85;;
47545;SDS011;50104;52.002;4.688;2023-05-01T04:23:05;4.90;;;4.03;;
47545;SDS011;50104;52.002;4.688;2023-05-01T04:28:11;7.70;;;4.38;;
47545;SDS011;50104;52.002;4.688;2023-05-01T04:33:12;9.98;;;4.20;;
47545;SDS011;50104;52.002;4.688;2023-05-01T04:38:13;5.80;;;4.30;;
47545;SDS011;50104;52.002;4.688;2023-05-01T04:43:14;6.18;;;4.07;;
47545;SDS011;50104;52.002;4.688;2023-05-01T04:48:15;4.32;;;3.13;;
47545;SDS011;50104;52.002;4.688;2023-05-01T04:53:16;5.00;;;3.58;;
47545;SDS011;50104;52.002;4.688;2023-05-01T04:58:17;5.40;;;3.47;;
47545;SDS011;50104;52.002;4.688;2023-05-01T05:03:18;5.35;;;3.42;;
47545;SDS011;50104;52.002;4.688;2023-05-01T05:08:18;6.03;;;2.90;;
47545;SDS011;50104;52.002;4.688;2023-05-01T05:13:20;3.85;;;3.50;;
47545;SDS011;50104;52.002;4.688;2023-05-01T05:18:20;7.65;;;3.05;;
47545;SDS011;50104;52.002;4.688;2023-05-01T05:23:21;5.53;;;2.95;;
47545;SDS011;50104;52.002;4.688;2023-05-01T05:28:22;6.78;;;3.58;;
47545;SDS011;50104;52.002;4.688;2023-05-01T05:33:24;11.45;;;4.50;;
47545;SDS011;50104;52.002;4.688;2023-05-01T05:38:25;12.05;;;4.82;;
47545;SDS011;50104;52.002;4.688;2023-05-01T05:43:26;5.07;;;3.47;;
47545;SDS011;50104;52.002;4.688;2023-05-01T05:48:27;9.18;;;4.30;;
47545;SDS011;50104;52.002;4.688;2023-05-01T05:53:28;7.53;;;3.40;;
47545;SDS011;50104;52.002;4.688;2023-05-01T05:58:29;4.65;;;3.80;;
47545;SDS011;50104;52.002;4.688;2023-05-01T06:03:30;8.18;;;3.67;;
47545;SDS011;50104;52.002;4.688;2023-05-01T06:08:31;5.85;;;3.60;;
47545;SDS011;50104;52.002;4.688;2023-05-01T06:13:34;7.40;;;3.63;;
47545;SDS011;50104;52.002;4.688;2023-05-01T06:18:35;5.03;;;3.90;;
47545;SDS011;50104;52.002;4.688;2023-05-01T06:23:37;4.15;;;3.70;;
47545;SDS011;50104;52.002;4.688;2023-05-01T06:28:39;5.80;;;3.92;;
47545;SDS011;50104;52.002;4.688;2023-05-01T06:33:39;9.25;;;3.97;;
47545;SDS011;50104;52.002;4.688;2023-05-01T06:38:40;8.35;;;3.85;;
47545;SDS011;50104;52.002;4.688;2023-05-01T06:43:47;6.03;;;3.88;;
47545;SDS011;50104;52.002;4.688;2023-05-01T06:48:48;6.80;;;3.88;;
47545;SDS011;50104;52.002;4.688;2023-05-01T06:53:49;7.13;;;3.67;;
47545;SDS011;50104;52.002;4.688;2023-05-01T06:58:51;6.90;;;3.47;;
47545;SDS011;50104;52.002;4.688;2023-05-01T07:03:52;9.60;;;3.78;;
47545;SDS011;50104;52.002;4.688;2023-05-01T07:08:53;5.68;;;3.65;;
47545;SDS011;50104;52.002;4.688;2023-05-01T07:13:54;5.82;;;3.45;;
47545;SDS011;50104;52.002;4.688;2023-05-01T07:18:55;5.00;;;3.80;;
47545;SDS011;50104;52.002;4.688;2023-05-01T07:23:56;6.57;;;3.47;;
47545;SDS011;50104;52.002;4.688;2023-05-01T07:28:57;7.47;;;4.10;;
47545;SDS011;50104;52.002;4.688;2023-05-01T07:33:58;6.78;;;4.05;;
47545;SDS011;50104;52.002;4.688;2023-05-01T07:38:59;6.97;;;4.07;;
47545;SDS011;50104;52.002;4.688;2023-05-01T07:44:00;6.68;;;4.57;;
47545;SDS011;50104;52.002;4.688;2023-05-01T07:49:01;8.73;;;4.45;;
47545;SDS011;50104;52.002;4.688;2023-05-01T07:54:04;9.23;;;4.50;;
47545;SDS011;50104;52.002;4.688;2023-05-01T07:59:05;8.73;;;4.72;;
47545;SDS011;50104;52.002;4.688;2023-05-01T08:04:06;10.15;;;5.15;;
47545;SDS011;50104;52.002;4.688;2023-05-01T08:09:07;5.72;;;4.15;;
47545;SDS011;50104;52.002;4.688;2023-05-01T08:14:08;6.22;;;3.78;;
47545;SDS011;50104;52.002;4.688;2023-05-01T08:19:10;9.30;;;4.90;;
47545;SDS011;50104;52.002;4.688;2023-05-01T08:24:11;7.35;;;4.38;;
47545;SDS011;50104;52.002;4.688;2023-05-01T08:29:12;6.45;;;4.72;;
47545;SDS011;50104;52.002;4.688;2023-05-01T08:34:13;8.52;;;4.72;;
47545;SDS011;50104;52.002;4.688;2023-05-01T08:39:14;6.43;;;4.47;;
47545;SDS011;50104;52.002;4.688;2023-05-01T08:44:15;6.72;;;4.80;;
47545;SDS011;50104;52.002;4.688;2023-05-01T08:49:16;6.15;;;4.82;;
47545;SDS011;50104;52.002;4.688;2023-05-01T08:54:18;9.50;;;5.25;;
47545;SDS011;50104;52.002;4.688;2023-05-01T08:59:20;7.97;;;4.68;;
47545;SDS011;50104;52.002;4.688;2023-05-01T09:04:22;7.97;;;5.38;;
47545;SDS011;50104;52.002;4.688;2023-05-01T09:09:23;8.98;;;5.30;;
47545;SDS011;50104;52.002;4.688;2023-05-01T09:14:24;8.75;;;4.88;;
47545;SDS011;50104;52.002;4.688;2023-05-01T09:19:26;6.82;;;5.10;;
47545;SDS011;50104;52.002;4.688;2023-05-01T09:24:27;8.25;;;5.15;;
47545;SDS011;50104;52.002;4.688;2023-05-01T09:34:42;7.47;;;5.38;;
47545;SDS011;50104;52.002;4.688;2023-05-01T09:39:44;8.38;;;5.55;;
47545;SDS011;50104;52.002;4.688;2023-05-01T09:44:44;8.25;;;5.75;;
47545;SDS011;50104;52.002;4.688;2023-05-01T09:49:46;11.52;;;6.05;;
47545;SDS011;50104;52.002;4.688;2023-05-01T09:54:48;10.88;;;6.03;;
47545;SDS011;50104;52.002;4.688;2023-05-01T10:00:01;10.95;;;5.47;;
47545;SDS011;50104;52.002;4.688;2023-05-01T10:05:09;9.20;;;5.97;;
47545;SDS011;50104;52.002;4.688;2023-05-01T10:10:17;13.02;;;4.80;;
47545;SDS011;50104;52.002;4.688;2023-05-01T10:15:20;8.95;;;6.18;;
47545;SDS011;50104;52.002;4.688;2023-05-01T10:20:23;9.02;;;6.55;;
47545;SDS011;50104;52.002;4.688;2023-05-01T10:25:24;10.90;;;6.00;;
47545;SDS011;50104;52.002;4.688;2023-05-01T10:30:28;8.77;;;6.40;;
47545;SDS011;50104;52.002;4.688;2023-05-01T10:35:36;10.10;;;6.43;;
47545;SDS011;50104;52.002;4.688;2023-05-01T10:40:46;6.25;;;5.10;;
47545;SDS011;50104;52.002;4.688;2023-05-01T10:45:51;9.45;;;5.32;;
47545;SDS011;50104;52.002;4.688;2023-05-01T10:51:25;6.18;;;4.60;;
47545;SDS011;50104;52.002;4.688;2023-05-01T11:01:39;8.25;;;4.40;;
47545;SDS011;50104;52.002;4.688;2023-05-01T11:12:12;9.70;;;4.45;;
47545;SDS011;50104;52.002;4.688;2023-05-01T11:17:19;7.32;;;4.72;;
47545;SDS011;50104;52.002;4.688;2023-05-01T11:22:43;7.20;;;4.20;;
47545;SDS011;50104;52.002;4.688;2023-05-01T11:28:04;7.10;;;4.72;;
47545;SDS011;50104;52.002;4.688;2023-05-01T11:33:08;8.15;;;4.85;;
47545;SDS011;50104;52.002;4.688;2023-05-01T11:38:16;10.65;;;5.07;;
47545;SDS011;50104;52.002;4.688;2023-05-01T11:43:20;12.18;;;5.45;;
47545;SDS011;50104;52.002;4.688;2023-05-01T11:48:22;11.38;;;5.80;;
47545;SDS011;50104;52.002;4.688;2023-05-01T11:53:23;8.95;;;6.32;;
47545;SDS011;50104;52.002;4.688;2023-05-01T11:58:31;9.63;;;4.97;;
47545;SDS011;50104;52.002;4.688;2023-05-01T12:03:39;6.95;;;4.80;;
47545;SDS011;50104;52.002;4.688;2023-05-01T12:08:42;8.75;;;5.22;;
47545;SDS011;50104;52.002;4.688;2023-05-01T12:13:47;7.53;;;4.60;;
47545;SDS011;50104;52.002;4.688;2023-05-01T12:18:49;6.82;;;4.93;;
47545;SDS011;50104;52.002;4.688;2023-05-01T12:23:50;7.03;;;5.13;;
47545;SDS011;50104;52.002;4.688;2023-05-01T12:29:02;10.48;;;6.35;;
47545;SDS011;50104;52.002;4.688;2023-05-01T12:34:05;9.60;;;5.18;;
47545;SDS011;50104;52.002;4.688;2023-05-01T12:39:07;9.05;;;5.05;;
47545;SDS011;50104;52.002;4.688;2023-05-01T12:44:17;7.13;;;4.90;;
47545;SDS011;50104;52.002;4.688;2023-05-01T12:49:22;6.10;;;4.82;;
47545;SDS011;50104;52.002;4.688;2023-05-01T12:54:25;7.22;;;4.75;;
47545;SDS011;50104;52.002;4.688;2023-05-01T12:59:30;4.32;;;3.88;;
47545;SDS011;50104;52.002;4.688;2023-05-01T13:04:31;5.30;;;3.70;;
47545;SDS011;50104;52.002;4.688;2023-05-01T13:09:33;7.32;;;3.95;;
47545;SDS011;50104;52.002;4.688;2023-05-01T13:14:34;4.93;;;4.28;;
47545;SDS011;50104;52.002;4.688;2023-05-01T13:19:39;5.47;;;4.28;;
47545;SDS011;50104;52.002;4.688;2023-05-01T13:24:41;6.60;;;3.85;;
47545;SDS011;50104;52.002;4.688;2023-05-01T13:29:50;6.70;;;5.80;;
47545;SDS011;50104;52.002;4.688;2023-05-01T13:35:00;5.60;;;4.75;;
47545;SDS011;50104;52.002;4.688;2023-05-01T13:40:02;6.47;;;5.05;;
47545;SDS011;50104;52.002;4.688;2023-05-01T13:45:03;6.45;;;3.72;;
47545;SDS011;50104;52.002;4.688;2023-05-01T13:50:09;6.93;;;4.63;;
47545;SDS011;50104;52.002;4.688;2023-05-01T13:55:14;4.35;;;3.72;;
47545;SDS011;50104;52.002;4.688;2023-05-01T14:00:16;5.97;;;4.18;;
47545;SDS011;50104;52.002;4.688;2023-05-01T14:05:22;7.53;;;4.80;;
47545;SDS011;50104;52.002;4.688;2023-05-01T14:10:29;6.35;;;5.25;;
47545;SDS011;50104;52.002;4.688;2023-05-01T14:15:34;7.63;;;5.18;;
47545;SDS011;50104;52.002;4.688;2023-05-01T14:20:36;6.68;;;6.00;;
47545;SDS011;50104;52.002;4.688;2023-05-01T14:25:39;5.90;;;5.40;;
47545;SDS011;50104;52.002;4.688;2023-05-01T14:30:40;8.60;;;5.75;;
47545;SDS011;50104;52.002;4.688;2023-05-01T14:35:49;6.32;;;5.15;;
47545;SDS011;50104;52.002;4.688;2023-05-01T14:40:51;6.10;;;5.20;;
47545;SDS011;50104;52.002;4.688;2023-05-01T14:45:52;5.85;;;5.30;;
47545;SDS011;50104;52.002;4.688;2023-05-01T14:50:54;6.55;;;4.55;;
47545;SDS011;50104;52.002;4.688;2023-05-01T14:55:57;7.00;;;4.15;;
47545;SDS011;50104;52.002;4.688;2023-05-01T15:00:58;4.32;;;3.92;;
47545;SDS011;50104;52.002;4.688;2023-05-01T15:05:59;5.45;;;4.40;;
47545;SDS011;50104;52.002;4.688;2023-05-01T15:11:01;5.57;;;4.90;;
47545;SDS011;50104;52.002;4.688;2023-05-01T15:16:02;4.63;;;4.22;;
47545;SDS011;50104;52.002;4.688;2023-05-01T15:21:05;6.32;;;5.70;;
47545;SDS011;50104;52.002;4.688;2023-05-01T15:26:06;8.35;;;6.35;;
47545;SDS011;50104;52.002;4.688;2023-05-01T15:31:07;7.70;;;6.40;;
47545;SDS011;50104;52.002;4.688;2023-05-01T15:36:07;8.15;;;6.32;;
47545;SDS011;50104;52.002;4.688;2023-05-01T15:41:08;8.40;;;6.50;;
47545;SDS011;50104;52.002;4.688;2023-05-01T15:46:09;7.97;;;6.50;;
47545;SDS011;50104;52.002;4.688;2023-05-01T15:51:10;8.50;;;6.95;;
47545;SDS011;50104;52.002;4.688;2023-05-01T15:56:12;8.95;;;7.63;;
47545;SDS011;50104;52.002;4.688;2023-05-01T16:01:12;9.77;;;7.60;;
47545;SDS011;50104;52.002;4.688;2023-05-01T16:06:14;8.93;;;7.47;;
47545;SDS011;50104;52.002;4.688;2023-05-01T16:11:15;9.50;;;8.38;;
47545;SDS011;50104;52.002;4.688;2023-05-01T16:16:18;9.00;;;7.22;;
47545;SDS011;50104;52.002;4.688;2023-05-01T16:21:25;9.10;;;7.38;;
47545;SDS011;50104;52.002;4.688;2023-05-01T16:26:27;8.68;;;7.05;;
47545;SDS011;50104;52.002;4.688;2023-05-01T16:31:39;10.32;;;7.75;;
47545;SDS011;50104;52.002;4.688;2023-05-01T16:36:46;9.60;;;8.63;;
47545;SDS011;50104;52.002;4.688;2023-05-01T16:41:50;13.07;;;9.48;;
47545;SDS011;50104;52.002;4.688;2023-05-01T16:46:53;11.68;;;9.88;;
47545;SDS011;50104;52.002;4.688;2023-05-01T16:51:56;11.10;;;9.52;;
47545;SDS011;50104;52.002;4.688;2023-05-01T16:56:57;11.63;;;9.27;;
47545;SDS011;50104;52.002;4.688;2023-05-01T17:01:59;12.68;;;9.85;;
47545;SDS011;50104;52.002;4.688;2023-05-01T17:06:59;13.38;;;10.95;;
47545;SDS011;50104;52.002;4.688;2023-05-01T17:12:00;13.23;;;10.73;;
47545;SDS011;50104;52.002;4.688;2023-05-01T17:17:02;13.68;;;10.30;;
47545;SDS011;50104;52.002;4.688;2023-05-01T17:22:04;17.65;;;12.05;;
47545;SDS011;50104;52.002;4.688;2023-05-01T17:27:06;16.15;;;12.00;;
47545;SDS011;50104;52.002;4.688;2023-05-01T17:32:07;16.90;;;11.82;;
47545;SDS011;50104;52.002;4.688;2023-05-01T17:37:08;20.25;;;12.40;;
47545;SDS011;50104;52.002;4.688;2023-05-01T17:42:09;20.95;;;13.48;;
47545;SDS011;50104;52.002;4.688;2023-05-01T17:47:10;16.48;;;12.50;;
47545;SDS011;50104;52.002;4.688;2023-05-01T17:52:11;18.52;;;14.13;;
47545;SDS011;50104;52.002;4.688;2023-05-01T17:57:12;21.00;;;14.93;;
47545;SDS011;50104;52.002;4.688;2023-05-01T18:02:12;24.77;;;15.95;;
47545;SDS011;50104;52.002;4.688;2023-05-01T18:07:13;21.10;;;15.68;;
47545;SDS011;50104;52.002;4.688;2023-05-01T18:12:14;20.95;;;15.48;;
47545;SDS011;50104;52.002;4.688;2023-05-01T18:17:15;21.83;;;15.93;;
47545;SDS011;50104;52.002;4.688;2023-05-01T18:22:17;18.83;;;14.07;;
47545;SDS011;50104;52.002;4.688;2023-05-01T18:27:18;24.00;;;16.33;;
47545;SDS011;50104;52.002;4.688;2023-05-01T18:32:19;29.90;;;19.98;;
47545;SDS011;50104;52.002;4.688;2023-05-01T18:37:20;31.10;;;20.42;;
47545;SDS011;50104;52.002;4.688;2023-05-01T18:42:23;30.08;;;20.15;;
47545;SDS011;50104;52.002;4.688;2023-05-01T18:47:24;32.83;;;20.27;;
47545;SDS011;50104;52.002;4.688;2023-05-01T18:52:27;30.52;;;20.90;;
47545;SDS011;50104;52.002;4.688;2023-05-01T18:57:29;33.72;;;22.27;;
47545;SDS011;50104;52.002;4.688;2023-05-01T19:02:30;34.05;;;22.17;;
47545;SDS011;50104;52.002;4.688;2023-05-01T19:07:31;30.35;;;20.13;;
47545;SDS011;50104;52.002;4.688;2023-05-01T19:12:32;32.47;;;21.27;;
47545;SDS011;50104;52.002;4.688;2023-05-01T19:17:33;32.75;;;21.05;;
47545;SDS011;50104;52.002;4.688;2023-05-01T19:22:34;28.38;;;19.10;;
47545;SDS011;50104;52.002;4.688;2023-05-01T19:27:35;32.22;;;19.88;;
47545;SDS011;50104;52.002;4.688;2023-05-01T19:32:36;30.90;;;18.90;;
47545;SDS011;50104;52.002;4.688;2023-05-01T19:37:37;23.30;;;14.60;;
47545;SDS011;50104;52.002;4.688;2023-05-01T19:42:39;23.85;;;14.40;;
47545;SDS011;50104;52.002;4.688;2023-05-01T19:47:40;34.65;;;18.55;;
47545;SDS011;50104;52.002;4.688;2023-05-01T19:52:41;27.02;;;15.15;;
47545;SDS011;50104;52.002;4.688;2023-05-01T19:57:42;28.05;;;15.25;;
47545;SDS011;50104;52.002;4.688;2023-05-01T20:02:43;24.88;;;14.63;;
47545;SDS011;50104;52.002;4.688;2023-05-01T20:07:44;19.77;;;12.02;;
47545;SDS011;50104;52.002;4.688;2023-05-01T20:12:45;22.70;;;14.50;;
47545;SDS011;50104;52.002;4.688;2023-05-01T20:17:46;18.92;;;12.50;;
47545;SDS011;50104;52.002;4.688;2023-05-01T20:22:50;22.40;;;13.55;;
47545;SDS011;50104;52.002;4.688;2023-05-01T20:27:51;22.40;;;13.27;;
47545;SDS011;50104;52.002;4.688;2023-05-01T20:32:52;21.58;;;13.07;;
47545;SDS011;50104;52.002;4.688;2023-05-01T20:37:53;25.70;;;14.27;;
47545;SDS011;50104;52.002;4.688;2023-05-01T20:42:54;28.02;;;14.90;;
47545;SDS011;50104;52.002;4.688;2023-05-01T20:47:58;28.42;;;16.35;;
47545;SDS011;50104;52.002;4.688;2023-05-01T20:52:59;29.83;;;16.23;;
47545;SDS011;50104;52.002;4.688;2023-05-01T20:58:00;26.95;;;15.98;;
47545;SDS011;50104;52.002;4.688;2023-05-01T21:03:01;31.83;;;16.77;;
47545;SDS011;50104;52.002;4.688;2023-05-01T21:08:02;30.08;;;16.83;;
47545;SDS011;50104;52.002;4.688;2023-05-01T21:13:02;32.63;;;16.63;;
47545;SDS011;50104;52.002;4.688;2023-05-01T21:18:03;31.27;;;17.27;;
47545;SDS011;50104;52.002;4.688;2023-05-01T21:23:05;31.13;;;17.20;;
47545;SDS011;50104;52.002;4.688;2023-05-01T21:28:09;30.85;;;17.73;;
47545;SDS011;50104;52.002;4.688;2023-05-01T21:33:13;30.65;;;17.60;;
47545;SDS011;50104;52.002;4.688;2023-05-01T21:38:16;30.10;;;17.63;;
47545;SDS011;50104;52.002;4.688;2023-05-01T21:43:17;26.85;;;15.57;;
47545;SDS011;50104;52.002;4.688;2023-05-01T21:48:19;28.15;;;15.73;;
47545;SDS011;50104;52.002;4.688;2023-05-01T21:53:20;20.70;;;13.55;;
47545;SDS011;50104;52.002;4.688;2023-05-01T21:58:21;26.52;;;14.45;;
47545;SDS011;50104;52.002;4.688;2023-05-01T22:03:23;20.63;;;12.75;;
47545;SDS011;50104;52.002;4.688;2023-05-01T22:08:23;27.05;;;12.63;;
47545;SDS011;50104;52.002;4.688;2023-05-01T22:13:25;17.77;;;10.82;;
47545;SDS011;50104;52.002;4.688;2023-05-01T22:18:32;15.75;;;10.10;;
47545;SDS011;50104;52.002;4.688;2023-05-01T22:23:33;16.83;;;10.38;;
47545;SDS011;50104;52.002;4.688;2023-05-01T22:28:34;16.80;;;10.80;;
47545;SDS011;50104;52.002;4.688;2023-05-01T22:33:35;17.55;;;10.32;;
47545;SDS011;50104;52.002;4.688;2023-05-01T22:38:36;20.70;;;10.60;;
47545;SDS011;50104;52.002;4.688;2023-05-01T22:43:36;14.55;;;8.65;;
47545;SDS011;50104;52.002;4.688;2023-05-01T22:48:39;14.73;;;9.40;;
47545;SDS011;50104;52.002;4.688;2023-05-01T22:53:40;15.13;;;8.85;;
47545;SDS011;50104;52.002;4.688;2023-05-01T22:58:41;15.23;;;9.30;;
47545;SDS011;50104;52.002;4.688;2023-05-01T23:03:43;12.88;;;7.93;;
47545;SDS011;50104;52.002;4.688;2023-05-01T23:08:44;14.10;;;8.75;;
47545;SDS011;50104;52.002;4.688;2023-05-01T23:13:46;12.52;;;8.30;;
47545;SDS011;50104;52.002;4.688;2023-05-01T23:18:51;11.47;;;6.90;;
47545;SDS011;50104;52.002;4.688;2023-05-01T23:23:54;11.18;;;7.10;;
47545;SDS011;50104;52.002;4.688;2023-05-01T23:28:55;12.02;;;7.28;;
47545;SDS011;50104;52.002;4.688;2023-05-01T23:33:56;13.52;;;8.20;;
47545;SDS011;50104;52.002;4.688;2023-05-01T23:39:01;12.60;;;7.88;;
47545;SDS011;50104;52.002;4.688;2023-05-01T23:44:02;13.25;;;8.85;;
47545;SDS011;50104;52.002;4.688;2023-05-01T23:49:03;13.95;;;9.52;;
47545;SDS011;50104;52.002;4.688;2023-05-01T23:54:04;17.23;;;10.65;;
47545;SDS011;50104;52.002;4.688;2023-05-01T23:59:06;17.73;;;11.50;;
